Time;durP1;ratioP1;P1;durP2;ratioP2;P2;SDS_P1;SDS_P2;PMS_P1;PMS_P2;Temp;Humidity;BMP_temperature;BMP_pressure;BME280_temperature;BME280_humidity;BME280_pressure;Samples;Min_cycle;Max_cycle;Signal;HPM_P1;HPM_P2
2022/06/15 00:01:55;;;;;;;3.30;2.17;;;23.60;92.80;;;;;;4245840;27;20680;-74
2022/06/15 00:04:00;;;;;;;3.13;2.10;;;23.60;92.70;;;;;;4244128;27;20731;-74
2022/06/15 00:06:07;;;;;;;3.78;2.15;;;23.60;92.80;;;;;;4243372;27;20217;-74
2022/06/15 00:08:10;;;;;;;4.22;2.17;;;23.60;93.10;;;;;;4244624;27;20209;-74
2022/06/15 00:10:12;;;;;;;4.03;2.08;;;23.60;92.70;;;;;;4241060;27;20301;-74
2022/06/15 00:12:15;;;;;;;3.05;1.70;;;23.50;92.90;;;;;;4244353;27;20269;-74
2022/06/15 00:14:22;;;;;;;4.55;2.10;;;23.60;92.90;;;;;;4245321;27;20272;-74
2022/06/15 00:16:26;;;;;;;5.85;1.90;;;23.50;92.80;;;;;;4244819;27;20669;-74
2022/06/15 00:18:28;;;;;;;4.63;2.33;;;23.60;93.10;;;;;;4243519;27;20225;-74
2022/06/15 00:20:30;;;;;;;3.25;1.67;;;23.60;93.20;;;;;;4242827;27;20305;-74
2022/06/15 00:22:33;;;;;;;4.07;2.15;;;23.50;93.10;;;;;;4244889;27;20206;-74
2022/06/15 00:24:39;;;;;;;5.63;2.25;;;23.50;93.10;;;;;;4244294;27;20209;-74
2022/06/15 00:26:42;;;;;;;3.15;2.00;;;23.50;93.10;;;;;;4242525;27;20658;-74
2022/06/15 00:28:44;;;;;;;3.88;2.10;;;23.50;93.50;;;;;;4244580;27;20950;-74
2022/06/15 00:30:49;;;;;;;2.67;1.73;;;23.50;93.10;;;;;;4245114;27;20205;-74
2022/06/15 00:32:52;;;;;;;4.60;2.10;;;23.50;93.10;;;;;;4244046;27;20277;-74
2022/06/15 00:34:55;;;;;;;3.60;2.22;;;23.50;93.20;;;;;;4244337;27;20262;-74
2022/06/15 00:36:57;;;;;;;3.53;2.05;;;23.50;93.40;;;;;;4243611;27;20602;-74
2022/06/15 00:39:00;;;;;;;4.78;2.10;;;23.50;93.10;;;;;;4245259;27;20221;-74
2022/06/15 00:41:04;;;;;;;3.85;2.13;;;23.50;93.50;;;;;;4243126;27;20266;-74
2022/06/15 00:43:06;;;;;;;3.67;2.15;;;23.40;93.20;;;;;;4244507;27;20250;-74
2022/06/15 00:45:10;;;;;;;3.65;2.10;;;23.50;93.60;;;;;;4243245;27;20936;-74
2022/06/15 00:47:19;;;;;;;4.00;1.83;;;23.40;93.80;;;;;;4243285;27;20217;-74
2022/06/15 00:49:27;;;;;;;2.90;1.90;;;23.40;93.60;;;;;;4243334;27;20242;-74
2022/06/15 00:51:31;;;;;;;3.15;1.73;;;23.40;93.70;;;;;;4243780;27;20258;-74
2022/06/15 00:53:33;;;;;;;3.67;2.05;;;23.50;93.70;;;;;;4243576;27;20281;-74
2022/06/15 00:55:36;;;;;;;3.92;1.92;;;23.40;93.50;;;;;;4240346;27;20213;-73
2022/06/15 00:57:40;;;;;;;2.47;1.60;;;23.40;93.60;;;;;;4243770;27;20254;-74
2022/06/15 00:59:47;;;;;;;3.42;1.63;;;23.50;93.90;;;;;;4242653;27;20236;-74
2022/06/15 01:01:49;;;;;;;2.80;1.90;;;23.40;93.80;;;;;;4244076;27;20569;-74
2022/06/15 01:03:53;;;;;;;3.70;2.13;;;23.40;94.10;;;;;;4243794;27;20248;-74
2022/06/15 01:06:04;;;;;;;3.72;2.00;;;23.40;93.80;;;;;;4244815;27;20209;-74
2022/06/15 01:08:21;;;;;;;2.90;2.10;;;23.40;93.70;;;;;;4243338;27;20204;-74
2022/06/15 01:10:31;;;;;;;2.40;1.70;;;23.40;93.90;;;;;;4243425;27;20274;-74
2022/06/15 01:12:42;;;;;;;3.58;2.05;;;23.40;94.10;;;;;;4242168;27;20212;-73
2022/06/15 01:15:07;;;;;;;3.50;2.03;;;23.40;94.00;;;;;;4243790;27;20213;-74
2022/06/15 01:17:22;;;;;;;3.38;1.65;;;23.30;93.60;;;;;;4242686;27;20220;-74
2022/06/15 01:19:56;;;;;;;2.67;1.70;;;23.30;94.00;;;;;;4242021;27;20281;-74
2022/06/15 01:22:12;;;;;;;3.63;1.67;;;23.30;93.90;;;;;;4242641;27;20255;-74
2022/06/15 01:24:46;;;;;;;2.58;1.83;;;23.30;94.00;;;;;;4242714;27;20653;-74
2022/06/15 01:27:26;;;;;;;3.53;1.80;;;23.30;93.60;;;;;;4241698;27;20258;-73
2022/06/15 01:29:49;;;;;;;3.47;1.90;;;23.30;93.90;;;;;;4241849;27;21720;-73
2022/06/15 01:31:58;;;;;;;4.97;2.00;;;23.30;93.90;;;;;;4242146;27;20234;-74
2022/06/15 01:34:09;;;;;;;2.60;1.70;;;23.30;94.00;;;;;;4241981;27;20286;-74
2022/06/15 01:36:19;;;;;;;3.20;1.80;;;23.30;93.90;;;;;;4241657;27;20213;-73
2022/06/15 01:38:34;;;;;;;4.05;1.92;;;23.30;93.80;;;;;;4240469;27;20262;-74
2022/06/15 01:40:42;;;;;;;2.53;1.70;;;23.20;94.20;;;;;;4241459;27;20274;-74
2022/06/15 01:42:52;;;;;;;2.85;2.00;;;23.30;94.00;;;;;;4242539;27;20266;-74
2022/06/15 01:44:58;;;;;;;4.18;1.85;;;23.30;94.10;;;;;;4241375;27;20209;-74
2022/06/15 01:47:05;;;;;;;3.83;2.03;;;23.20;93.60;;;;;;4242209;27;20213;-74
2022/06/15 01:49:10;;;;;;;2.92;1.73;;;23.20;93.60;;;;;;4242462;27;20242;-74
2022/06/15 01:51:18;;;;;;;1.98;1.60;;;23.20;93.80;;;;;;4241708;27;20274;-74
2022/06/15 01:53:25;;;;;;;2.65;1.63;;;23.20;93.50;;;;;;4241951;27;20237;-74
2022/06/15 01:55:34;;;;;;;3.60;1.90;;;23.20;93.70;;;;;;4241264;27;20209;-74
2022/06/15 01:57:38;;;;;;;2.75;1.52;;;23.20;93.50;;;;;;4238457;27;20217;-73
2022/06/15 01:59:44;;;;;;;3.28;1.90;;;23.20;93.50;;;;;;4243209;27;20217;-74
2022/06/15 02:01:53;;;;;;;3.25;1.75;;;23.20;93.40;;;;;;4242273;27;21143;-73
2022/06/15 02:04:02;;;;;;;3.65;2.05;;;23.20;93.60;;;;;;4241149;27;20352;-73
2022/06/15 02:06:15;;;;;;;3.83;2.10;;;23.20;93.50;;;;;;4241823;27;20270;-74
2022/06/15 02:08:24;;;;;;;2.40;1.88;;;23.20;93.50;;;;;;4241492;27;20213;-74
2022/06/15 02:10:33;;;;;;;3.22;1.70;;;23.20;93.60;;;;;;4233252;27;20701;-74
2022/06/15 02:12:41;;;;;;;4.50;2.03;;;23.20;93.50;;;;;;4210747;28;20218;-74
2022/06/15 02:14:47;;;;;;;4.95;2.00;;;23.10;93.50;;;;;;4226966;27;20233;-74
2022/06/15 02:16:53;;;;;;;2.85;1.60;;;23.20;93.50;;;;;;4224931;27;20217;-74
2022/06/15 02:18:58;;;;;;;4.15;1.67;;;23.10;93.50;;;;;;4225035;27;20275;-74
2022/06/15 02:21:05;;;;;;;4.38;1.88;;;23.20;93.60;;;;;;4226933;27;20214;-74
2022/06/15 02:23:11;;;;;;;2.33;1.33;;;23.10;93.50;;;;;;4227984;27;20217;-74
2022/06/15 02:25:16;;;;;;;2.72;1.77;;;23.20;93.90;;;;;;4222348;27;20213;-74
2022/06/15 02:27:20;;;;;;;2.38;1.70;;;23.20;93.50;;;;;;4232203;27;20282;-74
2022/06/15 02:29:25;;;;;;;3.45;1.67;;;23.10;93.50;;;;;;4228845;27;20629;-73
2022/06/15 02:31:28;;;;;;;5.35;2.10;;;23.10;93.60;;;;;;4225347;27;20260;-74
2022/06/15 02:33:33;;;;;;;3.85;1.90;;;23.10;93.60;;;;;;4222010;28;20242;-73
2022/06/15 02:35:36;;;;;;;4.25;1.85;;;23.10;93.60;;;;;;4224672;27;20262;-74
2022/06/15 02:37:39;;;;;;;2.78;1.70;;;23.10;93.60;;;;;;4222784;27;20248;-74
2022/06/15 02:39:41;;;;;;;3.13;1.60;;;23.10;93.60;;;;;;4225299;27;20255;-74
2022/06/15 02:41:43;;;;;;;3.45;1.90;;;23.10;93.60;;;;;;4225190;27;20302;-74
2022/06/15 02:43:48;;;;;;;3.40;2.10;;;23.10;93.80;;;;;;4226936;27;20214;-74
2022/06/15 02:45:52;;;;;;;3.45;1.85;;;23.10;93.60;;;;;;4226447;27;20214;-74
2022/06/15 02:47:54;;;;;;;3.97;1.63;;;23.00;93.60;;;;;;4221483;27;20221;-74
2022/06/15 02:49:57;;;;;;;4.10;1.77;;;23.00;93.80;;;;;;4223702;27;20248;-74
2022/06/15 02:52:06;;;;;;;2.45;1.63;;;23.10;93.80;;;;;;4223398;27;20213;-74
2022/06/15 02:54:16;;;;;;;2.78;1.83;;;23.00;93.80;;;;;;4220429;28;20775;-73
2022/06/15 02:56:19;;;;;;;4.22;2.05;;;23.00;94.30;;;;;;4226017;27;20217;-74
2022/06/15 02:58:27;;;;;;;2.30;1.58;;;23.00;94.00;;;;;;4223292;28;20263;-74
2022/06/15 03:00:30;;;;;;;2.67;1.83;;;23.00;93.80;;;;;;4220607;27;20214;-74
2022/06/15 03:02:32;;;;;;;3.72;1.73;;;23.00;93.70;;;;;;4224500;27;20217;-72
2022/06/15 03:04:34;;;;;;;3.15;1.67;;;23.00;93.70;;;;;;4223970;27;20213;-73
2022/06/15 03:06:37;;;;;;;2.60;1.58;;;23.00;93.80;;;;;;4222979;28;20217;-73
2022/06/15 03:08:40;;;;;;;2.80;1.70;;;23.00;93.70;;;;;;4227493;27;20260;-74
2022/06/15 03:10:43;;;;;;;3.30;1.70;;;23.00;94.30;;;;;;4223917;27;20229;-73
2022/06/15 03:12:45;;;;;;;4.93;1.95;;;23.00;93.80;;;;;;4223527;27;20596;-73
2022/06/15 03:14:47;;;;;;;3.83;2.03;;;23.00;93.90;;;;;;4225286;27;20825;-73
2022/06/15 03:16:50;;;;;;;2.75;1.73;;;22.90;94.20;;;;;;4221413;28;20255;-73
2022/06/15 03:18:52;;;;;;;3.22;1.80;;;22.90;94.00;;;;;;4225042;27;20217;-74
2022/06/15 03:20:57;;;;;;;3.38;1.80;;;23.00;94.30;;;;;;4223454;27;20270;-74
2022/06/15 03:22:59;;;;;;;3.25;1.60;;;22.90;93.90;;;;;;4224511;27;20222;-74
2022/06/15 03:25:03;;;;;;;3.95;1.85;;;22.90;93.80;;;;;;4223046;27;20214;-74
2022/06/15 03:27:06;;;;;;;2.88;1.65;;;23.00;93.90;;;;;;4224520;28;20687;-73
2022/06/15 03:29:08;;;;;;;3.65;1.80;;;22.90;93.80;;;;;;4222958;28;20279;-73
2022/06/15 03:31:11;;;;;;;2.97;1.75;;;22.90;93.90;;;;;;4221635;28;20662;-73
2022/06/15 03:33:13;;;;;;;2.63;1.85;;;22.90;93.90;;;;;;4221478;27;20214;-73
2022/06/15 03:35:16;;;;;;;2.60;1.75;;;22.90;93.90;;;;;;4222534;28;20233;-73
2022/06/15 03:37:19;;;;;;;4.00;1.92;;;22.90;93.90;;;;;;4223968;28;20357;-73
2022/06/15 03:39:22;;;;;;;2.70;1.65;;;22.90;94.00;;;;;;4223133;28;20274;-74
2022/06/15 03:41:26;;;;;;;3.72;2.13;;;22.90;94.10;;;;;;4223247;28;20220;-73
2022/06/15 03:43:28;;;;;;;4.47;1.80;;;22.90;94.30;;;;;;4224943;28;20636;-74
2022/06/15 03:45:31;;;;;;;2.30;1.52;;;22.90;94.20;;;;;;4217392;28;20646;-74
2022/06/15 03:47:33;;;;;;;4.20;1.90;;;22.90;94.20;;;;;;4222621;28;20266;-74
2022/06/15 03:49:35;;;;;;;2.80;1.80;;;22.90;94.70;;;;;;4221482;28;20217;-74
2022/06/15 03:51:38;;;;;;;3.33;1.70;;;22.90;94.40;;;;;;4222922;28;20259;-73
2022/06/15 03:53:40;;;;;;;2.88;1.88;;;22.90;94.30;;;;;;4222559;28;20214;-73
2022/06/15 03:55:43;;;;;;;3.17;1.90;;;22.90;94.50;;;;;;4223743;28;20242;-73
2022/06/15 03:57:47;;;;;;;3.45;1.83;;;22.90;94.70;;;;;;4224123;28;20217;-74
2022/06/15 03:59:49;;;;;;;3.53;1.83;;;22.90;94.70;;;;;;4224115;28;20209;-73
2022/06/15 04:01:52;;;;;;;2.60;1.60;;;22.90;94.50;;;;;;4227729;28;20275;-73
2022/06/15 04:03:54;;;;;;;3.42;2.00;;;22.90;94.60;;;;;;4224829;28;20278;-74
2022/06/15 04:05:58;;;;;;;3.20;1.67;;;22.90;94.40;;;;;;4222482;28;20210;-74
2022/06/15 04:10:36;;;;;;;4.55;2.10;;;22.90;94.70;;;;;;4194778;28;20233;-73
2022/06/15 04:12:38;;;;;;;2.80;1.65;;;22.80;94.60;;;;;;4203879;28;20260;-74
2022/06/15 04:14:42;;;;;;;3.83;1.90;;;22.80;94.50;;;;;;4201487;28;20276;-73
2022/06/15 04:16:44;;;;;;;2.65;1.60;;;22.80;94.70;;;;;;4228958;28;20238;-74
2022/06/15 04:18:48;;;;;;;2.55;1.60;;;22.80;94.70;;;;;;4240120;28;20205;-74
2022/06/15 04:20:50;;;;;;;3.05;1.75;;;22.90;94.70;;;;;;4239965;28;20317;-74
2022/06/15 04:22:52;;;;;;;3.25;1.65;;;22.80;94.80;;;;;;4241114;28;20996;-74
2022/06/15 04:24:54;;;;;;;2.53;1.60;;;22.80;94.50;;;;;;4240130;28;20242;-73
2022/06/15 04:26:58;;;;;;;3.90;1.60;;;22.80;94.90;;;;;;4240218;28;20221;-74
2022/06/15 04:29:00;;;;;;;2.60;1.63;;;22.80;94.70;;;;;;4240347;28;20734;-74
2022/06/15 04:31:04;;;;;;;3.13;1.50;;;22.80;94.80;;;;;;4240685;28;20273;-74
2022/06/15 04:33:07;;;;;;;3.20;1.75;;;22.80;94.90;;;;;;4241688;27;20205;-74
2022/06/15 04:35:09;;;;;;;2.53;1.60;;;22.80;94.90;;;;;;4242109;27;20298;-74
2022/06/15 04:37:12;;;;;;;2.47;1.67;;;22.80;94.90;;;;;;4243357;27;20278;-74
2022/06/15 04:39:15;;;;;;;3.42;2.00;;;22.80;94.90;;;;;;4243738;27;20217;-74
2022/06/15 04:41:18;;;;;;;3.30;1.63;;;22.80;94.90;;;;;;4242140;27;20217;-74
2022/06/15 04:43:20;;;;;;;5.00;1.77;;;22.80;95.00;;;;;;4243944;27;20683;-73
2022/06/15 04:45:22;;;;;;;4.13;1.95;;;22.80;94.70;;;;;;4243109;27;20254;-74
2022/06/15 04:47:26;;;;;;;2.90;1.80;;;22.80;94.90;;;;;;4242705;27;20612;-74
2022/06/15 04:49:28;;;;;;;4.53;1.60;;;22.80;94.80;;;;;;4243087;27;20217;-74
2022/06/15 04:51:31;;;;;;;3.28;1.67;;;22.80;94.90;;;;;;4243580;27;20265;-73
2022/06/15 04:53:33;;;;;;;3.72;1.67;;;22.80;94.70;;;;;;4243258;27;20725;-73
2022/06/15 04:55:36;;;;;;;3.90;1.80;;;22.80;94.90;;;;;;4243318;27;20229;-74
2022/06/15 04:57:38;;;;;;;4.05;1.60;;;22.80;94.70;;;;;;4242055;27;20255;-74
2022/06/15 04:59:42;;;;;;;3.60;1.83;;;22.80;94.90;;;;;;4243426;27;20209;-74
2022/06/15 05:01:44;;;;;;;3.38;1.90;;;22.80;94.70;;;;;;4243150;27;20213;-74
2022/06/15 05:03:48;;;;;;;2.20;1.75;;;22.80;94.70;;;;;;4242797;27;20679;-73
2022/06/15 05:05:50;;;;;;;2.78;1.65;;;22.80;95.10;;;;;;4243529;27;20201;-73
2022/06/15 05:07:53;;;;;;;5.43;2.10;;;22.80;94.90;;;;;;4243634;27;20294;-73
2022/06/15 05:09:56;;;;;;;3.38;1.80;;;22.80;94.90;;;;;;4239496;27;20289;-74
2022/06/15 05:11:58;;;;;;;3.22;1.70;;;22.80;95.20;;;;;;4243104;27;20231;-73
2022/06/15 05:14:01;;;;;;;2.95;1.52;;;22.80;95.50;;;;;;4242916;27;20209;-73
2022/06/15 05:16:03;;;;;;;4.03;1.58;;;22.80;95.20;;;;;;4240998;27;20758;-73
2022/06/15 05:18:08;;;;;;;7.05;2.10;;;22.80;94.90;;;;;;4243150;27;20608;-73
2022/06/15 05:20:15;;;;;;;4.22;1.90;;;22.80;95.30;;;;;;4242385;27;20649;-73
2022/06/15 05:22:17;;;;;;;4.43;1.90;;;22.80;95.90;;;;;;4242852;27;20213;-73
2022/06/15 05:24:20;;;;;;;4.50;2.10;;;22.80;95.70;;;;;;4242562;27;20262;-73
2022/06/15 05:26:24;;;;;;;3.40;1.90;;;22.80;95.90;;;;;;4240159;27;20205;-73
2022/06/15 05:28:26;;;;;;;4.88;1.85;;;22.80;95.90;;;;;;4241947;27;20217;-74
2022/06/15 05:30:28;;;;;;;3.10;2.00;;;22.80;95.20;;;;;;4242110;27;20217;-74
2022/06/15 05:32:31;;;;;;;4.93;1.60;;;22.80;95.50;;;;;;4242335;27;20217;-74
2022/06/15 05:34:33;;;;;;;3.90;1.80;;;22.80;95.50;;;;;;4238625;27;20221;-74
2022/06/15 05:36:37;;;;;;;4.50;2.05;;;22.80;95.80;;;;;;4241758;27;20258;-73
2022/06/15 05:38:40;;;;;;;3.05;1.65;;;22.80;95.60;;;;;;4242457;27;20268;-74
2022/06/15 05:40:42;;;;;;;6.57;1.90;;;22.80;95.50;;;;;;4242002;27;20221;-74
2022/06/15 05:42:45;;;;;;;3.90;1.75;;;22.80;95.80;;;;;;4241267;27;20316;-74
2022/06/15 05:44:51;;;;;;;3.58;1.83;;;22.90;96.00;;;;;;4240258;27;20213;-74
2022/06/15 05:46:57;;;;;;;4.20;2.15;;;22.80;95.70;;;;;;4242615;27;20266;-74
2022/06/15 05:49:01;;;;;;;2.97;1.55;;;22.90;96.10;;;;;;4240071;27;20300;-73
2022/06/15 05:51:03;;;;;;;5.97;1.90;;;22.80;95.90;;;;;;4241826;27;21429;-74
2022/06/15 05:53:07;;;;;;;2.70;1.70;;;22.90;95.90;;;;;;4242395;27;20262;-73
2022/06/15 05:55:10;;;;;;;5.85;1.92;;;22.90;95.80;;;;;;4241912;27;20282;-73
2022/06/15 05:57:16;;;;;;;4.53;1.90;;;22.90;95.70;;;;;;4243079;27;20217;-73
2022/06/15 05:59:18;;;;;;;2.88;1.70;;;22.80;96.00;;;;;;4241562;27;20259;-74
2022/06/15 06:01:25;;;;;;;3.15;1.80;;;22.90;95.70;;;;;;4240584;27;20657;-74
2022/06/15 06:03:27;;;;;;;3.85;1.95;;;22.80;95.90;;;;;;4241148;27;20388;-73
2022/06/15 06:05:29;;;;;;;4.57;1.70;;;22.90;96.10;;;;;;4241628;27;20213;-73
2022/06/15 06:07:31;;;;;;;4.85;1.77;;;22.90;95.90;;;;;;4241811;27;20233;-73
2022/06/15 06:09:35;;;;;;;4.20;1.52;;;22.90;96.10;;;;;;4242797;27;20213;-73
2022/06/15 06:11:38;;;;;;;4.65;1.77;;;22.90;96.10;;;;;;4241565;27;20225;-74
2022/06/15 06:13:40;;;;;;;4.95;1.77;;;22.90;96.30;;;;;;4241415;27;20246;-74
2022/06/15 06:15:42;;;;;;;4.75;1.60;;;22.90;96.50;;;;;;4241606;27;20297;-74
2022/06/15 06:17:45;;;;;;;5.20;1.92;;;22.90;96.90;;;;;;4240422;27;20530;-73
2022/06/15 06:19:47;;;;;;;6.45;1.52;;;22.90;96.60;;;;;;4241838;27;20642;-74
2022/06/15 06:21:50;;;;;;;3.15;1.77;;;22.90;96.70;;;;;;4241693;27;20976;-73
2022/06/15 06:23:52;;;;;;;3.10;1.70;;;22.90;96.40;;;;;;4241779;27;20254;-73
2022/06/15 06:25:56;;;;;;;3.92;2.03;;;23.00;96.50;;;;;;4241759;27;20235;-73
2022/06/15 06:27:58;;;;;;;4.85;1.88;;;23.00;96.70;;;;;;4240774;27;20261;-73
2022/06/15 06:30:00;;;;;;;3.40;1.80;;;22.90;96.80;;;;;;4241851;27;20216;-73
2022/06/15 06:32:03;;;;;;;4.90;2.10;;;23.00;96.50;;;;;;4242072;27;20604;-73
2022/06/15 06:34:05;;;;;;;2.42;1.52;;;23.00;96.60;;;;;;4239984;27;20213;-74
2022/06/15 06:36:14;;;;;;;3.67;1.58;;;23.00;96.60;;;;;;4241358;27;20293;-74
2022/06/15 06:38:16;;;;;;;3.20;1.55;;;23.00;96.70;;;;;;4241590;27;20220;-73
2022/06/15 06:40:18;;;;;;;3.10;1.58;;;23.00;96.50;;;;;;4241044;27;20209;-73
2022/06/15 06:42:22;;;;;;;2.78;1.60;;;23.00;96.50;;;;;;4240950;27;20585;-73
2022/06/15 06:44:25;;;;;;;2.92;1.88;;;23.00;96.60;;;;;;4241462;27;20221;-73
2022/06/15 06:46:27;;;;;;;3.85;1.83;;;23.00;96.50;;;;;;4241205;27;20620;-74
2022/06/15 06:48:30;;;;;;;2.08;1.40;;;23.00;96.70;;;;;;4241589;27;20266;-75
2022/06/15 06:50:32;;;;;;;5.28;2.00;;;23.00;96.60;;;;;;4240952;27;20238;-74
2022/06/15 06:52:34;;;;;;;3.08;1.70;;;23.00;96.40;;;;;;4240945;27;20257;-75
2022/06/15 06:54:37;;;;;;;4.90;2.00;;;23.00;96.20;;;;;;4241834;27;20572;-73
2022/06/15 06:56:41;;;;;;;3.08;1.80;;;23.00;96.20;;;;;;4239879;27;20237;-75
2022/06/15 06:58:45;;;;;;;4.55;1.70;;;23.00;96.00;;;;;;4240481;27;20205;-73
2022/06/15 07:00:47;;;;;;;3.83;1.85;;;23.00;96.20;;;;;;4241359;27;20209;-73
2022/06/15 07:02:49;;;;;;;4.80;2.10;;;23.10;96.10;;;;;;4241217;27;20209;-73
2022/06/15 07:04:52;;;;;;;3.08;2.25;;;23.00;96.10;;;;;;4242087;27;20209;-73
2022/06/15 07:06:57;;;;;;;8.82;3.55;;;23.10;96.20;;;;;;4240549;27;20269;-73
2022/06/15 07:08:59;;;;;;;6.32;4.05;;;22.80;95.60;;;;;;4232347;27;20209;-78
2022/06/15 07:11:01;;;;;;;7.80;4.65;;;22.50;96.10;;;;;;4235744;27;20320;-77
2022/06/15 07:13:04;;;;;;;8.35;4.47;;;22.20;96.60;;;;;;4238345;27;20216;-79
2022/06/15 07:15:08;;;;;;;9.40;4.13;;;22.10;96.80;;;;;;4236683;27;20269;-77
2022/06/15 07:17:11;;;;;;;7.53;4.32;;;22.00;96.80;;;;;;4237859;27;20224;-76
2022/06/15 07:19:13;;;;;;;9.15;4.35;;;22.00;96.70;;;;;;4235800;27;20740;-78
2022/06/15 07:21:19;;;;;;;7.72;4.28;;;22.10;96.80;;;;;;4235046;27;20270;-78
2022/06/15 07:23:21;;;;;;;9.88;4.60;;;22.10;97.00;;;;;;4233959;27;20261;-80
2022/06/15 07:25:23;;;;;;;5.68;3.60;;;22.00;97.00;;;;;;4235629;27;20213;-77
2022/06/15 07:27:26;;;;;;;7.32;3.80;;;22.00;97.00;;;;;;4239050;27;20253;-75
2022/06/15 07:29:28;;;;;;;12.45;4.68;;;22.00;97.20;;;;;;4240590;27;20213;-79
2022/06/15 07:31:34;;;;;;;11.05;4.55;;;22.10;97.10;;;;;;4237288;27;20197;-77
2022/06/15 07:33:38;;;;;;;10.63;4.25;;;22.10;97.50;;;;;;4231116;27;20217;-75
2022/06/15 07:35:41;;;;;;;8.02;4.30;;;22.10;97.30;;;;;;4239132;27;20254;-75
2022/06/15 07:37:44;;;;;;;7.68;4.10;;;22.20;97.20;;;;;;4236813;27;20286;-75
2022/06/15 07:39:46;;;;;;;10.25;4.25;;;22.20;97.30;;;;;;4236676;27;20266;-76
2022/06/15 07:41:50;;;;;;;9.23;4.30;;;22.20;97.30;;;;;;4241701;27;20347;-77
2022/06/15 07:43:54;;;;;;;10.45;4.80;;;22.10;97.50;;;;;;4239914;27;20238;-77
2022/06/15 07:45:56;;;;;;;9.90;4.28;;;22.20;97.70;;;;;;4238638;27;20682;-76
2022/06/15 07:50:20;;;;;;;13.73;4.80;;;22.20;97.70;;;;;;4234978;28;20213;-78
2022/06/15 07:52:26;;;;;;;10.48;4.10;;;22.30;97.80;;;;;;4238863;28;20260;-77
2022/06/15 07:54:29;;;;;;;14.02;4.50;;;22.40;97.80;;;;;;4239767;27;20277;-76
2022/06/15 07:56:32;;;;;;;12.45;4.47;;;22.40;97.70;;;;;;4240047;27;20333;-77
2022/06/15 07:58:35;;;;;;;13.35;3.75;;;22.40;97.80;;;;;;4239477;27;20213;-79
2022/06/15 08:00:39;;;;;;;10.52;4.05;;;22.40;97.60;;;;;;4232977;27;20209;-78
2022/06/15 08:02:42;;;;;;;10.43;4.38;;;22.50;97.50;;;;;;4232985;27;20318;-79
2022/06/15 08:04:46;;;;;;;9.85;4.50;;;22.60;97.60;;;;;;4238653;27;20273;-78
2022/06/15 08:06:49;;;;;;;8.05;4.22;;;22.60;97.50;;;;;;4236251;27;20599;-77
2022/06/15 08:08:52;;;;;;;9.60;4.18;;;22.50;97.70;;;;;;4242176;27;20265;-79
2022/06/15 08:10:55;;;;;;;9.93;4.20;;;22.60;97.60;;;;;;4240824;27;20324;-80
2022/06/15 08:12:57;;;;;;;13.52;4.47;;;22.50;97.60;;;;;;4243228;27;20208;-77
2022/06/15 08:15:02;;;;;;;11.45;4.00;;;22.50;97.50;;;;;;4243344;27;20217;-77
2022/06/15 08:17:06;;;;;;;11.00;4.20;;;22.60;97.80;;;;;;4238528;27;20233;-77
2022/06/15 08:19:09;;;;;;;12.60;3.80;;;22.50;97.70;;;;;;4243401;27;20674;-77
2022/06/15 08:21:17;;;;;;;10.43;4.00;;;22.60;97.60;;;;;;4239663;27;20270;-79
2022/06/15 08:23:24;;;;;;;12.20;4.43;;;22.60;97.80;;;;;;4241631;27;20217;-79
2022/06/15 08:25:30;;;;;;;12.45;4.15;;;22.70;97.70;;;;;;4242624;27;20305;-76
2022/06/15 08:27:32;;;;;;;12.60;3.80;;;22.60;97.70;;;;;;4241388;27;20201;-77
2022/06/15 08:29:35;;;;;;;13.63;4.32;;;22.60;97.70;;;;;;4241474;27;20224;-77
2022/06/15 08:31:38;;;;;;;10.88;4.25;;;22.70;97.80;;;;;;4238347;27;20210;-79
2022/06/15 08:33:40;;;;;;;9.98;3.85;;;22.60;97.90;;;;;;4240169;27;20251;-78
2022/06/15 08:35:43;;;;;;;11.77;3.75;;;22.70;97.90;;;;;;4237211;27;20263;-77
2022/06/15 08:37:46;;;;;;;10.93;3.53;;;22.80;97.90;;;;;;4238151;27;20282;-77
2022/06/15 08:39:49;;;;;;;10.35;3.90;;;22.70;97.80;;;;;;4241702;27;20677;-78
2022/06/15 08:42:00;;;;;;;11.88;4.00;;;22.70;97.80;;;;;;4240165;27;20221;-77
2022/06/15 08:44:11;;;;;;;11.02;3.35;;;22.70;97.80;;;;;;4238603;27;20225;-78
2022/06/15 08:46:23;;;;;;;10.73;3.70;;;22.70;98.20;;;;;;4239097;27;20209;-74
2022/06/15 08:48:43;;;;;;;10.77;3.55;;;22.80;97.80;;;;;;4241841;27;20292;-75
2022/06/15 08:50:54;;;;;;;8.00;3.58;;;22.80;98.10;;;;;;4241901;27;20217;-76
2022/06/15 08:53:19;;;;;;;14.05;4.68;;;22.90;97.70;;;;;;4239932;27;20217;-76
2022/06/15 08:55:28;;;;;;;8.95;3.50;;;23.00;98.00;;;;;;4237509;27;20665;-75
2022/06/15 08:57:39;;;;;;;8.68;2.83;;;23.00;97.70;;;;;;4239938;27;20232;-75
2022/06/15 08:59:47;;;;;;;9.57;3.10;;;23.00;97.50;;;;;;4241963;27;20258;-77
2022/06/15 09:01:56;;;;;;;8.30;2.92;;;23.00;97.60;;;;;;4237440;27;20246;-76
2022/06/15 09:04:10;;;;;;;11.10;3.83;;;22.90;97.80;;;;;;4237557;27;20216;-77
2022/06/15 09:06:28;;;;;;;8.00;3.20;;;22.90;97.40;;;;;;4238607;27;20274;-77
2022/06/15 09:08:47;;;;;;;9.77;3.30;;;23.10;97.70;;;;;;4239461;27;20265;-76
2022/06/15 09:10:54;;;;;;;9.38;3.90;;;23.20;97.30;;;;;;4238819;27;20286;-77
2022/06/15 09:13:07;;;;;;;10.32;4.07;;;23.20;97.30;;;;;;4240494;27;20212;-76
2022/06/15 09:15:18;;;;;;;9.55;3.90;;;23.20;97.10;;;;;;4237676;27;20201;-75
2022/06/15 09:17:25;;;;;;;8.95;3.80;;;23.10;97.20;;;;;;4240098;27;20229;-77
2022/06/15 09:19:30;;;;;;;9.32;3.50;;;23.10;97.10;;;;;;4239533;27;20213;-75
2022/06/15 09:21:36;;;;;;;14.20;3.70;;;23.10;97.20;;;;;;4242714;27;20571;-79
2022/06/15 09:23:47;;;;;;;9.52;3.80;;;23.20;97.00;;;;;;4241279;27;20213;-78
2022/06/15 09:25:55;;;;;;;8.93;3.20;;;23.20;97.20;;;;;;4235790;27;20201;-77
2022/06/15 09:28:02;;;;;;;6.05;2.85;;;23.20;96.90;;;;;;4242364;27;20205;-79
2022/06/15 09:30:09;;;;;;;9.65;3.30;;;23.30;96.70;;;;;;4241758;27;20280;-78
2022/06/15 09:32:17;;;;;;;9.80;3.60;;;23.40;96.80;;;;;;4242644;27;20201;-77
2022/06/15 09:34:25;;;;;;;10.60;3.85;;;23.20;96.80;;;;;;4241690;27;20217;-77
2022/06/15 09:36:33;;;;;;;9.10;3.60;;;23.20;97.00;;;;;;4239810;27;20269;-77
2022/06/15 09:38:35;;;;;;;10.48;3.33;;;23.20;96.90;;;;;;4240198;27;20240;-76
2022/06/15 09:40:47;;;;;;;8.60;3.55;;;23.30;97.00;;;;;;4240195;27;20268;-76
2022/06/15 09:42:56;;;;;;;11.40;3.72;;;23.30;97.00;;;;;;4237988;27;20213;-76
2022/06/15 09:45:08;;;;;;;11.35;3.40;;;23.40;97.20;;;;;;4239388;27;20303;-76
2022/06/15 09:47:20;;;;;;;13.48;3.22;;;23.40;96.90;;;;;;4240115;27;20209;-76
2022/06/15 09:49:43;;;;;;;11.95;3.72;;;23.40;96.90;;;;;;4241364;27;20221;-76
2022/06/15 09:51:51;;;;;;;9.65;3.42;;;23.50;96.80;;;;;;4238692;27;20213;-76
2022/06/15 09:54:05;;;;;;;11.15;3.70;;;23.60;96.50;;;;;;4239837;27;20698;-77
2022/06/15 09:56:11;;;;;;;12.20;3.85;;;23.50;96.60;;;;;;4238323;27;20649;-74
2022/06/15 09:58:18;;;;;;;10.38;3.45;;;23.40;97.00;;;;;;4240756;27;20236;-76
2022/06/15 10:00:23;;;;;;;10.95;3.88;;;23.60;96.80;;;;;;4239979;27;20258;-76
2022/06/15 10:02:29;;;;;;;13.88;4.38;;;23.70;96.50;;;;;;4237742;27;20709;-76
2022/06/15 10:04:34;;;;;;;8.57;3.83;;;23.70;96.60;;;;;;4241556;27;20617;-77
2022/06/15 10:06:43;;;;;;;13.32;3.60;;;23.70;96.00;;;;;;4243510;27;20675;-77
2022/06/15 10:08:46;;;;;;;8.93;3.50;;;23.80;96.30;;;;;;4240333;27;20230;-77
2022/06/15 10:10:51;;;;;;;6.32;2.90;;;23.80;96.40;;;;;;4242470;27;20229;-77
2022/06/15 10:12:56;;;;;;;10.60;3.20;;;23.80;96.30;;;;;;4241044;27;20238;-78
2022/06/15 10:15:07;;;;;;;8.80;3.28;;;23.90;96.30;;;;;;4237256;27;20257;-77
2022/06/15 10:17:24;;;;;;;11.50;3.50;;;23.80;96.10;;;;;;4241024;27;20209;-78
2022/06/15 10:19:28;;;;;;;10.82;3.40;;;23.90;96.10;;;;;;4241063;27;20258;-77
2022/06/15 10:21:33;;;;;;;7.53;3.17;;;23.90;96.00;;;;;;4239406;27;20217;-78
2022/06/15 10:23:50;;;;;;;11.43;3.30;;;23.90;96.00;;;;;;4240906;27;20628;-78
2022/06/15 10:25:55;;;;;;;9.13;4.00;;;24.00;96.10;;;;;;4239021;27;20217;-77
2022/06/15 10:28:14;;;;;;;6.88;3.35;;;24.00;95.90;;;;;;4239757;27;20209;-78
2022/06/15 10:30:20;;;;;;;10.18;3.35;;;23.90;95.90;;;;;;4241590;27;20372;-78
2022/06/15 10:32:23;;;;;;;11.10;3.53;;;23.90;96.10;;;;;;4241335;27;20217;-81
2022/06/15 10:34:29;;;;;;;13.98;3.33;;;23.90;96.20;;;;;;4241728;27;20221;-77
2022/06/15 10:36:34;;;;;;;10.23;3.33;;;23.90;96.30;;;;;;4244410;27;20209;-79
2022/06/15 10:38:41;;;;;;;6.47;2.67;;;24.00;96.30;;;;;;4240924;27;20221;-80
2022/06/15 10:40:55;;;;;;;7.80;2.83;;;24.10;96.40;;;;;;4239119;27;20217;-78
2022/06/15 10:43:04;;;;;;;10.50;3.20;;;24.10;96.40;;;;;;4244523;27;20220;-78
2022/06/15 10:45:24;;;;;;;7.03;3.30;;;24.10;96.40;;;;;;4242587;27;20208;-81
2022/06/15 10:47:33;;;;;;;10.13;2.90;;;24.10;96.50;;;;;;4241281;27;20253;-80
2022/06/15 10:49:43;;;;;;;8.68;3.25;;;24.20;96.40;;;;;;4230815;27;20941;-80
2022/06/15 10:51:45;;;;;;;7.28;2.88;;;24.20;96.30;;;;;;4226170;27;20666;-80
2022/06/15 10:53:49;;;;;;;9.05;3.10;;;24.20;96.40;;;;;;4227205;27;20240;-80
2022/06/15 11:03:21;;;;;;;10.63;3.25;;;24.40;96.20;;;;;;4221448;27;20285;-80
2022/06/15 11:05:25;;;;;;;11.20;3.40;;;24.40;96.20;;;;;;4218982;27;20598;-78